createdAt,value
2018-12-03T00:02:00.990Z,52.20
2018-12-03T00:05:02.450Z,52.20
2018-12-03T00:08:10.178Z,52.10
2018-12-03T00:11:07.606Z,52.10
2018-12-03T00:14:04.611Z,52.20
2018-12-03T00:17:01.510Z,52.20
2018-12-03T00:19:58.381Z,52.10
2018-12-03T00:22:58.101Z,52.10
2018-12-03T00:25:59.550Z,52.10
2018-12-03T00:28:55.851Z,52.10
2018-12-03T00:31:52.231Z,52.10
2018-12-03T00:34:49.147Z,52.40
2018-12-03T00:37:50.821Z,52.30
2018-12-03T00:40:54.082Z,52.20
2018-12-03T00:43:50.611Z,52.20
2018-12-03T00:46:46.824Z,52.30
2018-12-03T00:49:43.464Z,52.30
2018-12-03T00:52:43.826Z,52.20
2018-12-03T00:55:41.149Z,52.40
2018-12-03T00:58:34.491Z,52.50
2018-12-03T01:04:38.743Z,52.40
2018-12-03T01:07:36.573Z,52.40
2018-12-03T01:10:37.931Z,52.40
2018-12-03T01:13:35.804Z,52.50
2018-12-03T01:16:39.858Z,52.50
2018-12-03T01:19:35.969Z,52.50
2018-12-03T01:22:32.564Z,52.50
2018-12-03T01:25:32.489Z,52.40
2018-12-03T01:28:37.311Z,52.50
2018-12-03T01:31:36.527Z,52.50
2018-12-03T01:34:33.345Z,52.50
2018-12-03T01:37:30.906Z,52.60
2018-12-03T01:40:33.800Z,52.70
2018-12-03T01:43:38.846Z,52.60
2018-12-03T01:46:35.963Z,52.60
2018-12-03T01:49:38.095Z,52.60
2018-12-03T01:52:39.104Z,52.60
2018-12-03T01:55:40.954Z,52.60
2018-12-03T01:58:42.445Z,52.60
2018-12-03T02:01:40.873Z,52.60
2018-12-03T02:04:43.665Z,52.60
2018-12-03T02:07:44.957Z,52.60
2018-12-03T02:10:45.756Z,52.60
2018-12-03T02:13:51.245Z,52.70
2018-12-03T02:16:52.263Z,52.70
2018-12-03T02:19:54.589Z,52.60
2018-12-03T02:22:56.051Z,52.70
2018-12-03T02:25:57.367Z,53.30
2018-12-03T02:28:58.318Z,52.70
2018-12-03T02:32:00.047Z,52.60
2018-12-03T02:35:02.223Z,52.60
2018-12-03T02:38:06.957Z,52.60
2018-12-03T02:41:08.245Z,52.60
2018-12-03T02:44:11.144Z,52.60
2018-12-03T02:47:14.076Z,52.60
2018-12-03T02:50:18.634Z,52.70
2018-12-03T02:53:19.458Z,52.60
2018-12-03T02:56:19.351Z,52.60
2018-12-03T02:59:19.879Z,52.60
2018-12-03T03:02:20.939Z,52.40
2018-12-03T03:05:21.992Z,52.40
2018-12-03T03:08:18.721Z,52.60
2018-12-03T03:11:19.176Z,52.50
2018-12-03T03:14:20.763Z,52.60
2018-12-03T03:17:23.007Z,52.50
2018-12-03T03:20:27.062Z,52.50
2018-12-03T03:23:28.728Z,52.60
2018-12-03T03:26:32.992Z,52.40
2018-12-03T03:29:29.919Z,52.40
2018-12-03T03:32:35.020Z,52.40
2018-12-03T03:35:35.158Z,52.40
2018-12-03T03:38:37.205Z,52.30
2018-12-03T03:41:39.404Z,52.50
2018-12-03T03:44:40.964Z,52.20
2018-12-03T03:47:42.533Z,52.50
2018-12-03T03:57:46.631Z,52.40
2018-12-03T04:00:52.867Z,52.30
2018-12-03T04:03:56.757Z,52.10
2018-12-03T04:06:58.249Z,52.40
2018-12-03T04:09:55.562Z,52.20
2018-12-03T04:12:54.644Z,52.30
2018-12-03T04:15:59.012Z,52.30
2018-12-03T04:19:06.184Z,52.20
2018-12-03T04:22:03.641Z,52.40
2018-12-03T04:25:07.179Z,52.20
2018-12-03T04:28:04.935Z,52.30
2018-12-03T04:31:08.195Z,52.40
2018-12-03T04:34:06.807Z,51.80
2018-12-03T04:37:12.946Z,51.30
2018-12-03T04:40:25.946Z,50.90
2018-12-03T04:43:26.525Z,51.00
2018-12-03T04:46:31.553Z,55.40
2018-12-03T04:49:35.466Z,56.10
2018-12-03T04:52:37.724Z,55.60
2018-12-03T04:55:44.107Z,55.10
2018-12-03T04:58:47.785Z,54.60
2018-12-03T05:08:35.999Z,53.40
2018-12-03T05:11:45.121Z,53.00
2018-12-03T05:14:59.437Z,52.90
2018-12-03T05:17:58.991Z,52.90
2018-12-03T05:24:19.883Z,52.80
2018-12-03T05:27:33.177Z,52.70
2018-12-03T05:33:57.179Z,52.80
2018-12-03T05:37:20.532Z,52.80
2018-12-03T05:40:28.040Z,52.60
2018-12-03T05:43:49.439Z,52.50
2018-12-03T05:48:30.746Z,52.30
2018-12-03T05:50:05.674Z,52.30
2018-12-03T05:53:23.067Z,52.00
2018-12-03T05:56:29.259Z,51.70
2018-12-03T06:03:06.146Z,51.40
2018-12-03T06:15:38.437Z,50.50
2018-12-03T06:25:32.295Z,49.80
2018-12-03T06:28:55.202Z,49.80
2018-12-03T06:35:19.309Z,50.10
2018-12-03T06:38:27.683Z,50.50
2018-12-03T06:41:59.553Z,50.70
2018-12-03T06:45:22.321Z,50.80
2018-12-03T07:11:44.245Z,49.40
2018-12-03T08:12:04.687Z,49.40
2018-12-03T08:21:57.101Z,49.50
2018-12-03T08:25:53.212Z,50.00
2018-12-03T08:29:50.858Z,49.80
2018-12-03T08:35:29.076Z,50.90
2018-12-03T08:38:40.353Z,51.30
2018-12-03T08:42:16.833Z,51.30
2018-12-03T08:45:27.910Z,50.90
2018-12-03T08:49:01.061Z,50.80
2018-12-03T08:55:58.782Z,50.80
2018-12-03T09:50:32.510Z,49.40
2018-12-03T10:02:03.682Z,49.70
2018-12-03T10:05:11.153Z,50.00
2018-12-03T10:12:06.417Z,46.40
2018-12-03T10:15:12.424Z,46.30
2018-12-03T10:18:41.453Z,46.10
2018-12-03T10:25:56.380Z,45.50
2018-12-03T10:33:12.745Z,44.90
2018-12-03T10:48:02.419Z,46.60
2018-12-03T11:01:30.873Z,49.30
2018-12-03T11:05:05.891Z,48.80
2018-12-03T11:08:35.652Z,48.90
2018-12-03T11:12:16.803Z,48.80
2018-12-03T11:22:54.490Z,49.20
2018-12-03T11:29:09.730Z,49.20
2018-12-03T11:32:29.245Z,49.10
2018-12-03T11:35:38.923Z,49.00
2018-12-03T11:39:16.653Z,49.10
2018-12-03T11:42:16.250Z,49.20
2018-12-03T11:45:24.476Z,48.80
2018-12-03T11:48:34.597Z,48.80
2018-12-03T11:51:44.629Z,48.70
2018-12-03T11:54:54.955Z,48.90
2018-12-03T11:57:57.415Z,48.90
2018-12-03T12:00:55.179Z,49.00
2018-12-03T12:03:55.016Z,49.00
2018-12-03T12:07:03.424Z,49.00
2018-12-03T12:10:24.418Z,49.20
2018-12-03T12:13:27.205Z,49.60
2018-12-03T12:16:39.918Z,49.80
2018-12-03T12:19:43.207Z,47.40
2018-12-03T12:22:50.439Z,47.10
2018-12-03T12:25:53.956Z,47.80
2018-12-03T12:29:02.597Z,48.30
2018-12-03T12:32:09.612Z,48.80
2018-12-03T12:35:10.277Z,49.30
2018-12-03T12:38:16.703Z,49.30
2018-12-03T12:41:18.376Z,49.40
2018-12-03T12:44:16.758Z,49.50
2018-12-03T12:47:17.473Z,49.70
2018-12-03T12:50:23.221Z,49.70
2018-12-03T12:53:21.515Z,50.00
2018-12-03T12:56:23.986Z,50.00
2018-12-03T12:59:26.474Z,50.20
2018-12-03T13:02:26.867Z,50.30
2018-12-03T13:05:28.742Z,50.20
2018-12-03T13:08:37.815Z,50.30
2018-12-03T13:11:40.164Z,50.40
2018-12-03T13:14:46.136Z,50.50
2018-12-03T13:17:49.617Z,50.50
2018-12-03T13:21:07.948Z,50.50
2018-12-03T13:27:27.045Z,50.50
2018-12-03T13:30:28.292Z,50.80
2018-12-03T13:33:31.073Z,51.40
2018-12-03T13:36:31.861Z,50.70
2018-12-03T13:39:33.186Z,50.80
2018-12-03T13:42:34.456Z,50.90
2018-12-03T13:45:34.451Z,50.90
2018-12-03T13:48:34.807Z,50.90
2018-12-03T13:51:36.067Z,51.00
2018-12-03T13:54:37.396Z,51.00
2018-12-03T13:57:37.860Z,50.90
2018-12-03T14:00:41.318Z,51.00
2018-12-03T14:03:43.396Z,51.00
2018-12-03T14:07:01.242Z,51.00
2018-12-03T14:10:33.856Z,50.90
2018-12-03T14:13:56.818Z,51.00
2018-12-03T14:17:21.888Z,51.00
2018-12-03T14:20:24.434Z,51.00
2018-12-03T14:23:30.755Z,50.90
2018-12-03T14:26:33.696Z,51.00
2018-12-03T14:29:38.502Z,51.00
2018-12-03T14:32:35.181Z,51.10
2018-12-03T14:35:37.093Z,51.10
2018-12-03T14:38:38.399Z,51.10
2018-12-03T14:41:41.151Z,51.10
2018-12-03T14:44:41.943Z,51.10
2018-12-03T14:47:41.883Z,50.90
2018-12-03T14:50:42.189Z,51.00
2018-12-03T14:53:44.035Z,51.00
2018-12-03T14:56:46.770Z,51.00
2018-12-03T14:59:47.040Z,51.00
2018-12-03T15:02:47.877Z,51.00
2018-12-03T15:05:49.878Z,51.00
2018-12-03T15:08:46.262Z,51.00
2018-12-03T15:11:46.031Z,50.70
2018-12-03T15:14:46.012Z,51.00
2018-12-03T15:17:42.654Z,50.90
2018-12-03T15:20:39.202Z,50.90
2018-12-03T15:23:41.900Z,51.00
2018-12-03T15:26:46.295Z,50.90
2018-12-03T15:29:49.770Z,51.10
2018-12-03T15:32:52.690Z,51.00
2018-12-03T15:35:54.370Z,51.00
2018-12-03T15:39:01.390Z,51.00
2018-12-03T15:42:03.538Z,50.90
2018-12-03T15:45:04.493Z,50.90
2018-12-03T15:48:08.020Z,50.80
2018-12-03T15:51:10.108Z,51.00
2018-12-03T15:54:14.342Z,51.00
2018-12-03T15:57:16.601Z,50.60
2018-12-03T16:00:21.363Z,50.10
2018-12-03T16:03:24.953Z,50.50
2018-12-03T16:06:28.129Z,50.60
2018-12-03T16:09:29.567Z,50.60
2018-12-03T16:12:32.137Z,50.50
2018-12-03T16:15:41.008Z,50.40
2018-12-03T16:18:35.179Z,50.70
2018-12-03T16:21:40.161Z,50.60
2018-12-03T16:24:50.602Z,50.60
2018-12-03T16:28:10.036Z,50.40
2018-12-03T16:31:21.695Z,50.60
2018-12-03T16:34:22.471Z,50.70
2018-12-03T16:37:30.515Z,50.50
2018-12-03T16:40:39.271Z,50.60
2018-12-03T16:43:58.992Z,50.70
2018-12-03T16:50:16.863Z,50.50
2018-12-03T16:53:46.548Z,50.70
2018-12-03T16:56:56.812Z,50.60
2018-12-03T17:03:39.886Z,50.70
2018-12-03T17:06:49.848Z,50.80
2018-12-03T17:10:28.497Z,50.70
2018-12-03T17:13:39.342Z,51.00
2018-12-03T17:16:56.940Z,51.00
2018-12-03T17:20:09.022Z,50.80
2018-12-03T17:23:25.170Z,50.90
2018-12-03T17:26:59.826Z,50.90
2018-12-03T17:30:02.882Z,51.20
2018-12-03T17:33:15.746Z,51.10
2018-12-03T17:36:30.410Z,51.10
2018-12-03T17:39:28.418Z,51.30
2018-12-03T17:42:36.434Z,51.30
2018-12-03T17:45:43.064Z,51.20
2018-12-03T17:48:51.434Z,51.30
2018-12-03T17:51:49.450Z,51.20
2018-12-03T17:54:46.206Z,51.00
2018-12-03T17:57:46.356Z,51.30
2018-12-03T18:00:42.858Z,51.00
2018-12-03T18:03:43.965Z,51.00
2018-12-03T18:06:48.642Z,51.30
2018-12-03T18:09:51.749Z,51.20
2018-12-03T18:12:55.093Z,51.50
2018-12-03T18:15:56.403Z,51.40
2018-12-03T18:18:52.449Z,51.30
2018-12-03T18:21:53.292Z,51.30
2018-12-03T18:24:53.948Z,51.10
2018-12-03T18:27:56.163Z,51.50
2018-12-03T18:30:57.649Z,51.10
2018-12-03T18:33:58.663Z,51.30
2018-12-03T18:36:55.626Z,51.30
2018-12-03T18:39:53.018Z,51.30
2018-12-03T18:42:50.090Z,51.50
2018-12-03T18:45:47.034Z,51.40
2018-12-03T18:48:44.018Z,51.50
2018-12-03T18:51:40.810Z,51.40
2018-12-03T18:54:44.817Z,51.50
2018-12-03T18:57:50.629Z,51.20
2018-12-03T19:00:47.442Z,51.30
2018-12-03T19:03:48.689Z,51.40
2018-12-03T19:06:45.371Z,51.60
2018-12-03T19:09:42.643Z,51.50
2018-12-03T19:12:45.296Z,51.60
2018-12-03T19:15:47.686Z,51.60
2018-12-03T19:18:44.391Z,51.60
2018-12-03T19:21:41.996Z,51.70
2018-12-03T19:24:38.552Z,51.70
2018-12-03T19:27:37.892Z,51.70
2018-12-03T19:30:35.615Z,52.30
2018-12-03T19:33:37.666Z,51.70
2018-12-03T19:36:53.965Z,51.70
2018-12-03T19:39:55.614Z,51.80
2018-12-03T19:42:52.097Z,51.80
2018-12-03T19:45:48.990Z,51.80
2018-12-03T19:48:45.414Z,51.80
2018-12-03T19:51:48.321Z,51.90
2018-12-03T19:54:48.369Z,52.00
2018-12-03T19:57:45.768Z,51.70
2018-12-03T20:00:42.078Z,51.80
2018-12-03T20:03:44.949Z,51.90
2018-12-03T20:06:45.009Z,51.90
2018-12-03T20:09:41.867Z,52.00
2018-12-03T20:12:38.748Z,52.00
2018-12-03T20:15:40.061Z,51.90
2018-12-03T20:18:36.680Z,51.90
2018-12-03T20:21:37.054Z,51.80
2018-12-03T20:24:40.095Z,51.90
2018-12-03T20:27:48.542Z,51.90
2018-12-03T20:31:03.663Z,52.00
2018-12-03T20:34:28.623Z,51.80
2018-12-03T20:37:44.082Z,52.00
2018-12-03T20:41:02.589Z,52.00
2018-12-03T20:44:01.276Z,51.80
2018-12-03T20:47:22.039Z,52.10
2018-12-03T20:50:34.774Z,51.80
2018-12-03T20:53:34.304Z,52.10
2018-12-03T20:56:34.563Z,51.90
2018-12-03T20:59:31.089Z,52.10
2018-12-03T21:02:29.653Z,52.20
2018-12-03T21:05:26.047Z,52.00
2018-12-03T21:08:22.514Z,52.20
2018-12-03T21:11:25.002Z,52.10
2018-12-03T21:14:21.177Z,52.10
2018-12-03T21:17:17.960Z,52.10
2018-12-03T21:20:38.972Z,52.00
2018-12-03T21:23:40.333Z,52.00
2018-12-03T21:26:34.105Z,52.10
2018-12-03T21:29:30.725Z,52.20
2018-12-03T21:32:27.690Z,52.10
2018-12-03T21:35:25.924Z,52.00
2018-12-03T21:38:26.458Z,52.10
2018-12-03T21:41:22.896Z,52.10
2018-12-03T21:44:19.137Z,52.20
2018-12-03T21:47:17.406Z,52.10
2018-12-03T21:50:18.112Z,52.00
2018-12-03T21:53:15.299Z,52.00
2018-12-03T21:56:11.958Z,52.20
2018-12-03T21:59:08.407Z,52.20
2018-12-03T22:02:04.964Z,52.10
2018-12-03T22:05:01.516Z,52.10
2018-12-03T22:07:57.754Z,52.10
2018-12-03T22:10:55.919Z,52.20
2018-12-03T22:13:57.336Z,52.30
2018-12-03T22:16:57.468Z,52.30
2018-12-03T22:20:01.400Z,52.20
2018-12-03T22:22:58.005Z,52.30
2018-12-03T22:25:59.172Z,52.30
2018-12-03T22:29:00.265Z,52.40
2018-12-03T22:31:56.954Z,52.40
2018-12-03T22:34:56.861Z,52.30
2018-12-03T22:37:54.743Z,52.50
2018-12-03T22:40:53.984Z,52.50
2018-12-03T22:43:50.367Z,52.60
2018-12-03T22:46:52.921Z,52.70
2018-12-03T22:49:54.373Z,52.70
2018-12-03T22:52:50.684Z,52.60
2018-12-03T22:55:49.130Z,52.60
2018-12-03T22:58:45.531Z,52.60
2018-12-03T23:01:42.008Z,52.60
2018-12-03T23:04:43.442Z,52.60
2018-12-03T23:07:43.162Z,52.70
2018-12-03T23:10:43.914Z,52.50
2018-12-03T23:13:40.024Z,52.40
2018-12-03T23:16:37.103Z,52.60
2018-12-03T23:19:33.902Z,52.60
2018-12-03T23:22:29.316Z,52.60
2018-12-03T23:25:31.181Z,52.70
2018-12-03T23:28:29.367Z,52.80
2018-12-03T23:31:30.491Z,52.80
2018-12-03T23:34:26.627Z,52.80
2018-12-03T23:37:27.949Z,52.80
2018-12-03T23:40:24.178Z,52.80
2018-12-03T23:43:20.540Z,52.90
2018-12-03T23:46:21.491Z,52.70
2018-12-03T23:49:26.060Z,52.80
2018-12-03T23:52:26.863Z,52.80
2018-12-03T23:55:22.944Z,52.80
2018-12-03T23:58:25.994Z,52.60
